createdAt,value
2023-04-11T00:01:36.809Z,101962.34
2023-04-11T00:04:05.341Z,101952.06
2023-04-11T00:06:33.840Z,101953.81
2023-04-11T00:09:03.157Z,101944.34
2023-04-11T00:11:32.184Z,101949.50
2023-04-11T00:14:00.063Z,101945.22
2023-04-11T00:16:28.105Z,101941.75
2023-04-11T00:18:57.276Z,101933.16
2023-04-11T00:21:25.304Z,101928.00
2023-04-11T00:23:54.223Z,101927.16
2023-04-11T00:26:23.575Z,101923.69
2023-04-11T00:28:51.471Z,101915.16
2023-04-11T00:31:19.570Z,101908.25
2023-04-11T00:33:47.458Z,101906.56
2023-04-11T00:36:15.374Z,101895.44
2023-04-11T00:38:44.791Z,101898.09
2023-04-11T00:41:12.811Z,101897.25
2023-04-11T00:43:42.147Z,101890.34
2023-04-11T00:46:10.287Z,101891.25
2023-04-11T00:48:38.408Z,101886.97
2023-04-11T00:51:06.722Z,101887.81
2023-04-11T00:53:35.977Z,101886.09
2023-04-11T00:56:04.001Z,101879.28
2023-04-11T00:58:33.948Z,101870.69
2023-04-11T01:01:09.171Z,101861.28
2023-04-11T01:03:37.855Z,101860.44
2023-04-11T01:06:07.851Z,101857.88
2023-04-11T01:08:36.799Z,101854.50
2023-04-11T01:11:05.300Z,101846.78
2023-04-11T01:13:34.373Z,101846.81
2023-04-11T01:16:04.427Z,101839.06
2023-04-11T01:18:32.535Z,101834.75
2023-04-11T01:21:00.664Z,101836.53
2023-04-11T01:23:30.471Z,101828.88
2023-04-11T01:25:58.372Z,101833.19
2023-04-11T01:28:26.365Z,101826.41
2023-04-11T01:30:54.211Z,101822.16
2023-04-11T01:33:22.174Z,101821.34
2023-04-11T01:35:50.271Z,101818.75
2023-04-11T01:38:18.282Z,101815.31
2023-04-11T01:40:48.648Z,101815.31
2023-04-11T01:43:16.693Z,101815.31
2023-04-11T01:45:44.740Z,101809.34
2023-04-11T01:48:14.213Z,101800.81
2023-04-11T01:50:42.395Z,101801.72
2023-04-11T01:53:10.288Z,101801.66
2023-04-11T01:55:38.197Z,101796.53
2023-04-11T01:58:07.593Z,101788.81
2023-04-11T02:00:36.953Z,101784.63
2023-04-11T02:03:05.686Z,101788.97
2023-04-11T02:05:33.810Z,101787.25
2023-04-11T02:08:01.804Z,101777.94
2023-04-11T02:10:29.714Z,101778.06
2023-04-11T02:12:57.752Z,101780.69
2023-04-11T02:15:27.045Z,101772.09
2023-04-11T02:17:55.033Z,101763.53
2023-04-11T02:20:23.337Z,101764.38
2023-04-11T02:22:51.264Z,101755.81
2023-04-11T02:25:19.212Z,101753.25
2023-04-11T02:27:47.042Z,101756.69
2023-04-11T02:30:15.087Z,101751.56
2023-04-11T02:32:44.490Z,101752.47
2023-04-11T02:35:12.407Z,101738.75
2023-04-11T02:37:40.400Z,101732.78
2023-04-11T02:40:11.639Z,101737.91
2023-04-11T02:42:43.378Z,101725.91
2023-04-11T02:45:12.858Z,101724.22
2023-04-11T02:47:40.921Z,101719.09
2023-04-11T02:50:11.368Z,101719.97
2023-04-11T02:52:42.377Z,101714.91
2023-04-11T02:55:10.833Z,101712.34
2023-04-11T02:57:39.287Z,101703.78
2023-04-11T03:00:09.114Z,101701.25
2023-04-11T03:02:37.205Z,101699.56
2023-04-11T03:05:06.516Z,101695.31
2023-04-11T03:07:38.466Z,101697.09
2023-04-11T03:10:07.536Z,101685.13
2023-04-11T03:12:35.448Z,101686.84
2023-04-11T03:15:03.335Z,101683.41
2023-04-11T03:17:31.228Z,101671.44
2023-04-11T03:19:59.223Z,101670.63
2023-04-11T03:22:27.108Z,101670.63
2023-04-11T03:24:56.388Z,101667.22
2023-04-11T03:27:24.313Z,101667.19
2023-04-11T03:29:52.169Z,101661.19
2023-04-11T03:32:20.004Z,101663.75
2023-04-11T03:34:47.913Z,101661.19
2023-04-11T03:37:15.762Z,101656.16
2023-04-11T03:39:43.728Z,101660.41
2023-04-11T03:42:13.535Z,101650.16
2023-04-11T03:44:41.458Z,101658.72
2023-04-11T03:47:09.354Z,101654.47
2023-04-11T03:49:37.188Z,101655.28
2023-04-11T03:52:06.291Z,101648.44
2023-04-11T03:54:34.284Z,101634.69
2023-04-11T03:57:02.304Z,101644.16
2023-04-11T03:59:31.935Z,101639.00
2023-04-11T04:01:59.982Z,101638.16
2023-04-11T04:04:28.036Z,101641.59
2023-04-11T04:06:57.032Z,101633.00
2023-04-11T04:09:25.070Z,101628.72
2023-04-11T04:11:53.015Z,101627.88
2023-04-11T04:14:20.910Z,101629.59
2023-04-11T04:16:50.178Z,101627.00
2023-04-11T04:19:18.147Z,101619.28
2023-04-11T04:21:46.659Z,101619.28
2023-04-11T04:24:14.719Z,101613.31
2023-04-11T04:26:43.880Z,101613.31
2023-04-11T04:29:12.648Z,101612.38
2023-04-11T04:31:41.216Z,101609.72
2023-04-11T04:34:10.744Z,101615.53
2023-04-11T04:36:46.421Z,101603.81
2023-04-11T04:39:18.038Z,101598.75
2023-04-11T04:41:48.721Z,101599.69
2023-04-11T04:44:17.478Z,101598.72
2023-04-11T04:46:45.731Z,101595.91
2023-04-11T04:49:15.088Z,101602.19
2023-04-11T04:51:42.962Z,101600.53
2023-04-11T04:54:10.794Z,101597.94
2023-04-11T04:56:38.687Z,101597.97
2023-04-11T04:59:06.729Z,101594.47
2023-04-11T05:01:35.300Z,101590.16
2023-04-11T05:04:03.689Z,101579.00
2023-04-11T05:06:33.603Z,101590.81
2023-04-11T05:09:03.427Z,101585.56
2023-04-11T05:11:31.442Z,101586.31
2023-04-11T05:13:59.337Z,101582.75
2023-04-11T05:16:27.328Z,101572.44
2023-04-11T05:18:55.272Z,101575.72
2023-04-11T05:21:23.448Z,101571.28
2023-04-11T05:23:52.747Z,101567.75
2023-04-11T05:26:20.688Z,101566.75
2023-04-11T05:28:48.602Z,101565.78
2023-04-11T05:31:17.027Z,101564.81
2023-04-11T05:33:45.043Z,101561.28
2023-04-11T05:36:14.247Z,101559.47
2023-04-11T05:38:42.300Z,101556.78
2023-04-11T05:41:12.859Z,101556.63
2023-04-11T05:43:40.742Z,101560.78
2023-04-11T05:46:12.802Z,101558.06
2023-04-11T05:48:41.444Z,101566.41
2023-04-11T05:51:09.886Z,101567.97
2023-04-11T05:53:37.800Z,101556.63
2023-04-11T05:56:06.728Z,101553.84
2023-04-11T05:58:37.708Z,101545.78
2023-04-11T06:01:07.403Z,101538.19
2023-04-11T06:03:35.640Z,101541.84
2023-04-11T06:06:03.908Z,101537.53
2023-04-11T06:08:32.407Z,101541.88
2023-04-11T06:11:00.293Z,101538.09
2023-04-11T06:13:28.279Z,101535.03
2023-04-11T06:15:57.837Z,101532.38
2023-04-11T06:18:25.821Z,101523.53
2023-04-11T06:20:53.737Z,101524.34
2023-04-11T06:23:21.898Z,101520.47
2023-04-11T06:25:49.832Z,101517.44
2023-04-11T06:28:17.937Z,101511.81
2023-04-11T06:30:45.920Z,101503.69
2023-04-11T06:33:15.447Z,101503.81
2023-04-11T06:35:43.422Z,101509.06
2023-04-11T06:38:11.297Z,101495.06
2023-04-11T06:40:39.221Z,101493.59
2023-04-11T06:43:07.145Z,101495.78
2023-04-11T06:45:35.018Z,101484.91
2023-04-11T06:48:02.983Z,101482.28
2023-04-11T06:50:32.259Z,101481.97
2023-04-11T06:53:00.151Z,101468.19
2023-04-11T06:55:28.143Z,101470.56
2023-04-11T06:57:56.009Z,101461.63
2023-04-11T07:00:24.191Z,101462.94
2023-04-11T07:02:52.574Z,101455.75
2023-04-11T07:05:20.873Z,101453.66
2023-04-11T07:07:50.246Z,101451.38
2023-04-11T07:10:18.183Z,101449.34
2023-04-11T07:12:46.168Z,101443.72
2023-04-11T07:15:14.087Z,101448.84
2023-04-11T07:17:41.939Z,101446.53
2023-04-11T07:20:11.258Z,101441.06
2023-04-11T07:22:42.519Z,101440.13
2023-04-11T07:25:12.356Z,101424.91
2023-04-11T07:27:43.666Z,101428.72
2023-04-11T07:30:12.377Z,101423.19
2023-04-11T07:32:40.495Z,101419.03
2023-04-11T07:35:08.944Z,101416.72
2023-04-11T07:37:36.874Z,101416.16
2023-04-11T07:40:10.922Z,101404.84
2023-04-11T07:42:40.443Z,101414.22
2023-04-11T07:45:09.409Z,101411.50
2023-04-11T07:47:37.559Z,101414.44
2023-04-11T07:50:06.829Z,101411.97
2023-04-11T07:52:34.708Z,101410.47
2023-04-11T07:55:03.014Z,101416.75
2023-04-11T07:57:31.229Z,101421.03
2023-04-11T08:00:02.042Z,101415.75
2023-04-11T08:02:30.135Z,101410.09
2023-04-11T08:04:58.284Z,101406.44
2023-04-11T08:07:26.319Z,101407.16
2023-04-11T08:09:54.256Z,101397.09
2023-04-11T08:12:22.150Z,101393.56
2023-04-11T08:14:50.064Z,101393.06
2023-04-11T08:17:27.479Z,101380.78
2023-04-11T08:19:57.461Z,101379.34
2023-04-11T08:22:26.021Z,101378.25
2023-04-11T08:24:53.933Z,101367.38
2023-04-11T08:27:21.834Z,101371.16
2023-04-11T08:29:49.721Z,101363.84
2023-04-11T08:32:19.044Z,101357.94
2023-04-11T08:34:47.046Z,101359.94
2023-04-11T08:37:14.971Z,101362.66
2023-04-11T08:39:42.815Z,101357.59
2023-04-11T08:42:23.071Z,101354.63
2023-04-11T08:44:55.478Z,101349.31
2023-04-11T08:47:24.978Z,101351.75
2023-04-11T08:49:53.350Z,101350.88
2023-04-11T08:52:22.039Z,101346.03
2023-04-11T08:54:54.009Z,101354.63
2023-04-11T08:57:31.607Z,101346.53
2023-04-11T09:00:08.346Z,101342.88
2023-04-11T09:02:56.467Z,101333.53
2023-04-11T09:05:28.802Z,101341.34
2023-04-11T09:07:57.398Z,101327.41
2023-04-11T09:10:26.882Z,101323.34
2023-04-11T09:12:55.176Z,101322.97
2023-04-11T09:15:24.439Z,101319.59
2023-04-11T09:17:53.798Z,101322.75
2023-04-11T09:20:26.101Z,101319.22
2023-04-11T09:22:55.001Z,101317.13
2023-04-11T09:25:24.102Z,101302.59
2023-04-11T09:28:08.430Z,101290.06
2023-04-11T09:30:36.417Z,101296.66
2023-04-11T09:33:21.928Z,101298.75
2023-04-11T09:35:50.867Z,101291.09
2023-04-11T09:38:32.674Z,101285.56
2023-04-11T09:41:01.649Z,101285.03
2023-04-11T09:43:48.919Z,101283.28
2023-04-11T09:46:18.752Z,101278.44
2023-04-11T09:48:48.818Z,101271.44
2023-04-11T09:51:28.065Z,101266.72
2023-04-11T09:54:03.482Z,101265.59
2023-04-11T09:56:34.325Z,101262.53
2023-04-11T09:59:04.210Z,101254.16
2023-04-11T10:01:32.399Z,101255.28
2023-04-11T10:04:01.976Z,101244.25
2023-04-11T10:06:34.222Z,101244.03
2023-04-11T10:09:09.669Z,101238.44
2023-04-11T10:11:38.144Z,101236.94
2023-04-11T10:14:06.131Z,101231.41
2023-04-11T10:16:34.608Z,101230.91
2023-04-11T10:19:26.082Z,101225.13
2023-04-11T10:21:54.036Z,101226.84
2023-04-11T10:24:22.849Z,101227.94
2023-04-11T10:26:53.329Z,101224.59
2023-04-11T10:29:40.918Z,101222.69
2023-04-11T10:32:12.593Z,101219.34
2023-04-11T10:35:32.090Z,101223.34
2023-04-11T10:38:00.184Z,101218.44
2023-04-11T10:40:28.074Z,101220.50
2023-04-11T10:43:18.997Z,101215.59
2023-04-11T10:45:47.112Z,101204.97
2023-04-11T10:48:15.048Z,101218.63
2023-04-11T10:50:45.312Z,101210.34
2023-04-11T10:53:36.256Z,101208.97
2023-04-11T10:56:04.246Z,101210.69
2023-04-11T10:58:39.999Z,101219.84
2023-04-11T11:01:32.070Z,101216.16
2023-04-11T11:04:06.437Z,101215.69
2023-04-11T11:06:46.755Z,101203.56
2023-04-11T11:09:23.208Z,101198.44
2023-04-11T11:12:06.527Z,101202.28
2023-04-11T11:14:34.541Z,101193.31
2023-04-11T11:17:03.166Z,101198.09
2023-04-11T11:19:31.499Z,101193.69
2023-04-11T11:22:04.056Z,101188.66
2023-04-11T11:24:32.335Z,101183.28
2023-04-11T11:27:00.555Z,101191.44
2023-04-11T11:29:32.545Z,101180.78
2023-04-11T11:32:03.424Z,101180.53
2023-04-11T11:34:32.935Z,101177.66
2023-04-11T11:37:04.753Z,101185.69
2023-04-11T11:39:33.968Z,101183.28
2023-04-11T11:42:02.363Z,101182.13
2023-04-11T11:44:32.548Z,101173.13
2023-04-11T11:47:04.633Z,101173.88
2023-04-11T11:49:48.536Z,101169.88
2023-04-11T11:55:30.104Z,101169.84
2023-04-11T11:58:02.061Z,101176.94
2023-04-11T12:00:32.350Z,101172.66
2023-04-11T12:03:00.914Z,101176.22
2023-04-11T12:05:33.161Z,101168.88
2023-04-11T12:08:04.089Z,101166.00
2023-04-11T12:10:41.150Z,101161.22
2023-04-11T12:13:17.902Z,101154.97
2023-04-11T12:15:47.640Z,101158.16
2023-04-11T12:18:15.787Z,101149.75
2023-04-11T12:20:43.842Z,101157.31
2023-04-11T12:23:11.883Z,101155.63
2023-04-11T12:25:41.736Z,101150.84
2023-04-11T12:28:10.196Z,101154.06
2023-04-11T12:30:38.770Z,101145.44
2023-04-11T12:33:07.335Z,101142.47
2023-04-11T12:35:35.396Z,101156.72
2023-04-11T12:38:04.317Z,101155.38
2023-04-11T12:40:32.447Z,101150.44
2023-04-11T12:43:01.806Z,101156.19
2023-04-11T12:45:29.713Z,101151.28
2023-04-11T12:47:57.608Z,101155.09
2023-04-11T12:50:25.575Z,101153.56
2023-04-11T12:52:53.821Z,101155.47
2023-04-11T12:55:22.785Z,101150.56
2023-04-11T12:57:50.795Z,101149.38
2023-04-11T13:00:20.784Z,101148.28
2023-04-11T13:02:48.910Z,101141.25
2023-04-11T13:05:17.385Z,101144.13
2023-04-11T13:07:46.314Z,101141.63
2023-04-11T13:10:15.791Z,101134.56
2023-04-11T13:12:45.361Z,101138.31
2023-04-11T13:15:14.996Z,101139.59
2023-04-11T13:17:44.685Z,101131.81
2023-04-11T13:20:13.806Z,101130.41
2023-04-11T13:22:42.818Z,101127.78
2023-04-11T13:25:12.152Z,101131.63
2023-04-11T13:27:40.383Z,101132.78
2023-04-11T13:30:10.218Z,101132.06
2023-04-11T13:32:38.249Z,101127.28
2023-04-11T13:35:08.744Z,101140.44
2023-04-11T13:37:36.351Z,101135.06
2023-04-11T13:40:08.421Z,101136.22
2023-04-11T13:42:36.602Z,101133.03
2023-04-11T13:45:05.009Z,101126.91
2023-04-11T13:47:32.937Z,101133.97
2023-04-11T13:50:01.216Z,101139.13
2023-04-11T13:52:30.538Z,101130.72
2023-04-11T13:54:58.406Z,101129.91
2023-04-11T13:57:28.553Z,101119.63
2023-04-11T13:59:58.863Z,101130.16
2023-04-11T14:02:26.905Z,101119.50
2023-04-11T14:04:55.038Z,101117.22
2023-04-11T14:07:22.863Z,101118.91
2023-04-11T14:09:52.130Z,101118.66
2023-04-11T14:12:20.060Z,101120.13
2023-04-11T14:14:47.910Z,101114.13
2023-04-11T14:17:16.012Z,101117.72
2023-04-11T14:19:44.400Z,101110.31
2023-04-11T14:22:12.379Z,101119.88
2023-04-11T14:24:40.777Z,101115.69
2023-04-11T14:27:10.070Z,101116.28
2023-04-11T14:29:38.449Z,101107.44
2023-04-11T14:32:07.810Z,101109.22
2023-04-11T14:34:35.763Z,101102.16
2023-04-11T14:37:03.784Z,101097.28
2023-04-11T14:39:31.774Z,101098.94
2023-04-11T14:42:01.960Z,101095.13
2023-04-11T14:44:31.340Z,101094.53
2023-04-11T14:46:59.172Z,101099.91
2023-04-11T14:49:27.116Z,101088.66
2023-04-11T14:51:54.930Z,101090.47
2023-04-11T14:54:24.193Z,101081.84
2023-04-11T14:56:52.418Z,101086.63
2023-04-11T14:59:20.907Z,101087.97
2023-04-11T15:01:50.495Z,101086.41
2023-04-11T15:04:18.476Z,101081.25
2023-04-11T15:06:46.565Z,101081.50
2023-04-11T15:09:19.823Z,101080.94
2023-04-11T15:11:47.772Z,101087.28
2023-04-11T15:14:15.968Z,101077.81
2023-04-11T15:16:43.844Z,101079.03
2023-04-11T15:19:13.256Z,101077.69
2023-04-11T15:21:41.242Z,101077.81
2023-04-11T15:24:09.110Z,101078.06
2023-04-11T15:26:37.019Z,101081.66
2023-04-11T15:29:04.913Z,101078.53
2023-04-11T15:33:46.415Z,101079.75
2023-04-11T15:36:14.340Z,101078.19
2023-04-11T15:38:44.790Z,101072.09
2023-04-11T15:41:13.223Z,101075.78
2023-04-11T15:43:42.765Z,101080.94
2023-04-11T15:46:10.716Z,101068.28
2023-04-11T15:48:38.650Z,101073.03
2023-04-11T15:51:13.063Z,101066.97
2023-04-11T15:53:40.941Z,101064.56
2023-04-11T15:56:09.740Z,101067.75
2023-04-11T15:58:37.625Z,101067.38
2023-04-11T16:01:05.859Z,101068.69
2023-04-11T16:03:34.079Z,101064.75
2023-04-11T16:06:02.904Z,101066.66
2023-04-11T16:08:32.231Z,101071.28
2023-04-11T16:11:00.290Z,101070.72
2023-04-11T16:13:28.216Z,101064.84
2023-04-11T16:15:56.221Z,101077.47
2023-04-11T16:18:24.170Z,101077.13
2023-04-11T16:20:52.064Z,101081.41
2023-04-11T16:23:19.967Z,101079.13
2023-04-11T16:25:49.226Z,101076.09
2023-04-11T16:30:29.850Z,101078.34
2023-04-11T16:32:57.905Z,101078.66
2023-04-11T16:35:25.982Z,101081.41
2023-04-11T16:37:54.161Z,101083.44
2023-04-11T16:40:22.107Z,101089.16
2023-04-11T16:42:50.434Z,101089.59
2023-04-11T16:45:18.367Z,101082.28
2023-04-11T16:47:47.796Z,101082.72
2023-04-11T16:50:15.936Z,101078.13
2023-04-11T16:52:43.883Z,101073.44
2023-04-11T16:55:11.947Z,101085.56
2023-04-11T16:57:39.865Z,101080.72
2023-04-11T17:00:13.414Z,101083.56
2023-04-11T17:02:41.448Z,101083.25
2023-04-11T17:05:11.807Z,101079.72
2023-04-11T17:07:39.830Z,101087.28
2023-04-11T17:10:08.950Z,101085.06
2023-04-11T17:12:36.796Z,101083.13
2023-04-11T17:15:07.051Z,101078.63
2023-04-11T17:17:34.990Z,101087.00
2023-04-11T17:20:09.488Z,101087.75
2023-04-11T17:22:41.565Z,101090.88
2023-04-11T17:25:10.600Z,101102.19
2023-04-11T17:27:38.561Z,101099.97
2023-04-11T17:30:08.204Z,101101.34
2023-04-11T17:32:38.031Z,101102.66
2023-04-11T17:35:07.002Z,101103.91
2023-04-11T17:37:36.029Z,101111.31
2023-04-11T17:40:12.274Z,101111.84
2023-04-11T17:42:40.157Z,101108.78
2023-04-11T17:45:16.516Z,101115.25
2023-04-11T17:47:46.356Z,101115.75
2023-04-11T17:50:14.951Z,101123.88
2023-04-11T17:52:44.127Z,101116.69
2023-04-11T17:55:14.502Z,101110.06
2023-04-11T17:57:42.590Z,101113.78
2023-04-11T18:00:19.343Z,101119.81
2023-04-11T18:02:48.971Z,101117.59
2023-04-11T18:05:23.862Z,101118.91
2023-04-11T18:07:54.871Z,101121.91
2023-04-11T18:10:24.910Z,101123.97
2023-04-11T18:12:54.155Z,101121.53
2023-04-11T18:15:23.458Z,101121.81
2023-04-11T18:17:52.891Z,101119.38
2023-04-11T18:20:21.476Z,101109.25
2023-04-11T18:22:51.659Z,101112.88
2023-04-11T18:25:19.582Z,101120.34
2023-04-11T18:27:48.888Z,101110.19
2023-04-11T18:30:17.808Z,101108.75
2023-04-11T18:32:49.806Z,101110.75
2023-04-11T18:35:18.281Z,101114.53
2023-04-11T18:37:46.071Z,101110.53
2023-04-11T18:40:15.852Z,101120.22
2023-04-11T18:42:46.443Z,101113.50
2023-04-11T18:45:18.037Z,101119.75
2023-04-11T18:47:46.399Z,101113.88
2023-04-11T18:50:14.753Z,101121.88
2023-04-11T18:52:44.811Z,101117.03
2023-04-11T18:55:13.777Z,101120.09
2023-04-11T18:57:43.681Z,101118.69
2023-04-11T19:00:18.018Z,101114.59
2023-04-11T19:02:50.801Z,101125.47
2023-04-11T19:05:19.479Z,101126.91
2023-04-11T19:07:47.453Z,101128.78
2023-04-11T19:10:15.417Z,101130.78
2023-04-11T19:12:43.462Z,101134.59
2023-04-11T19:15:12.696Z,101141.84
2023-04-11T19:17:40.695Z,101143.00
2023-04-11T19:20:13.650Z,101138.03
2023-04-11T19:22:42.003Z,101149.75
2023-04-11T19:25:11.616Z,101147.41
2023-04-11T19:27:41.492Z,101143.34
2023-04-11T19:30:13.485Z,101148.63
2023-04-11T19:32:43.626Z,101143.63
2023-04-11T19:35:13.568Z,101139.31
2023-04-11T19:37:41.830Z,101148.06
2023-04-11T19:40:13.605Z,101139.56
2023-04-11T19:42:41.880Z,101144.22
2023-04-11T19:45:11.188Z,101142.59
2023-04-11T19:47:40.392Z,101145.38
2023-04-11T19:50:11.936Z,101150.91
2023-04-11T19:52:42.192Z,101151.31
2023-04-11T19:55:10.791Z,101148.38
2023-04-11T19:57:40.237Z,101160.22
2023-04-11T20:00:14.515Z,101160.56
2023-04-11T20:02:45.780Z,101162.69
2023-04-11T20:05:15.552Z,101173.34
2023-04-11T20:07:45.174Z,101169.31
2023-04-11T20:10:13.839Z,101176.34
2023-04-11T20:12:41.840Z,101167.09
2023-04-11T20:15:10.743Z,101175.81
2023-04-11T20:17:38.729Z,101177.75
2023-04-11T20:20:08.641Z,101171.06
2023-04-11T20:22:38.318Z,101168.91
2023-04-11T20:25:11.551Z,101172.63
2023-04-11T20:27:39.985Z,101161.47
2023-04-11T20:30:10.679Z,101167.50
2023-04-11T20:32:39.011Z,101163.06
2023-04-11T20:35:08.751Z,101166.59
2023-04-11T20:37:36.990Z,101166.75
2023-04-11T20:40:07.781Z,101168.44
2023-04-11T20:42:41.120Z,101166.06
2023-04-11T20:45:11.155Z,101172.41
2023-04-11T20:47:39.356Z,101173.41
2023-04-11T20:50:10.439Z,101170.94
2023-04-11T20:52:41.410Z,101169.34
2023-04-11T20:55:10.726Z,101169.50
2023-04-11T20:57:40.180Z,101166.03
2023-04-11T21:00:13.959Z,101168.72
2023-04-11T21:02:44.523Z,101164.44
2023-04-11T21:05:13.241Z,101168.78
2023-04-11T21:07:42.152Z,101168.88
2023-04-11T21:10:12.148Z,101169.03
2023-04-11T21:12:42.622Z,101164.75
2023-04-11T21:15:11.761Z,101165.13
2023-04-11T21:17:40.526Z,101166.06
2023-04-11T21:20:11.173Z,101161.94
2023-04-11T21:22:40.276Z,101163.81
2023-04-11T21:25:09.393Z,101164.13
2023-04-11T21:27:37.277Z,101169.63
2023-04-11T21:30:07.869Z,101167.38
2023-04-11T21:32:35.869Z,101165.13
2023-04-11T21:35:05.164Z,101168.75
2023-04-11T21:37:33.192Z,101179.41
2023-04-11T21:40:01.163Z,101182.22
2023-04-11T21:42:29.045Z,101175.66
2023-04-11T21:44:56.966Z,101174.88
2023-04-11T21:47:26.226Z,101184.53
2023-04-11T21:49:54.225Z,101185.47
2023-04-11T21:52:22.172Z,101190.91
2023-04-11T21:54:50.055Z,101184.03
2023-04-11T21:57:18.003Z,101189.38
2023-04-11T21:59:46.844Z,101192.03
2023-04-11T22:02:17.986Z,101193.50
2023-04-11T22:05:01.596Z,101187.75
2023-04-11T22:07:38.670Z,101191.41
2023-04-11T22:10:10.336Z,101178.34
2023-04-11T22:12:38.769Z,101185.28
2023-04-11T22:15:07.748Z,101187.16
2023-04-11T22:17:37.222Z,101182.25
2023-04-11T22:20:08.925Z,101192.91
2023-04-11T22:22:36.756Z,101186.50
2023-04-11T22:25:04.983Z,101192.66
2023-04-11T22:27:34.549Z,101183.44
2023-04-11T22:30:03.473Z,101181.78
2023-04-11T22:32:31.308Z,101185.53
2023-04-11T22:34:59.958Z,101187.47
2023-04-11T22:37:29.354Z,101187.75
2023-04-11T22:39:57.523Z,101189.78
2023-04-11T22:42:25.905Z,101198.69
2023-04-11T22:44:53.767Z,101201.59
2023-04-11T22:47:24.464Z,101215.03
2023-04-11T22:49:52.344Z,101209.44
2023-04-11T22:52:25.900Z,101206.84
2023-04-11T22:54:56.470Z,101200.75
2023-04-11T22:57:24.368Z,101204.13
2023-04-11T22:59:52.412Z,101202.25
2023-04-11T23:02:20.369Z,101191.34
2023-04-11T23:04:48.391Z,101185.31
2023-04-11T23:07:17.008Z,101181.09
2023-04-11T23:09:44.985Z,101188.03
2023-04-11T23:12:14.299Z,101182.00
2023-04-11T23:14:42.206Z,101185.56
2023-04-11T23:17:10.264Z,101179.59
2023-04-11T23:19:38.097Z,101191.72
2023-04-11T23:22:06.395Z,101183.28
2023-04-11T23:24:34.459Z,101188.50
2023-04-11T23:27:02.585Z,101194.56
2023-04-11T23:29:31.987Z,101189.38
2023-04-11T23:31:59.889Z,101184.31
2023-04-11T23:34:30.623Z,101174.78
2023-04-11T23:36:58.779Z,101181.59
2023-04-11T23:39:26.905Z,101174.84
2023-04-11T23:41:54.736Z,101181.22
2023-04-11T23:44:22.878Z,101172.03
2023-04-11T23:46:52.195Z,101173.84
2023-04-11T23:49:20.091Z,101173.91
2023-04-11T23:51:48.368Z,101162.88
2023-04-11T23:54:16.329Z,101158.78
2023-04-11T23:56:44.814Z,101171.00
2023-04-11T23:59:12.731Z,101162.56
